createdAt,value
2023-05-25T00:00:53.460Z,101917.53
2023-05-25T00:03:27.777Z,101920.06
2023-05-25T00:05:54.548Z,101926.25
2023-05-25T00:08:21.205Z,101927.78
2023-05-25T00:10:47.718Z,101925.56
2023-05-25T00:13:14.194Z,101926.84
2023-05-25T00:15:40.918Z,101923.78
2023-05-25T00:18:07.709Z,101925.50
2023-05-25T00:20:34.643Z,101919.25
2023-05-25T00:23:02.413Z,101925.19
2023-05-25T00:25:29.626Z,101918.84
2023-05-25T00:27:56.148Z,101924.34
2023-05-25T00:30:22.659Z,101921.44
2023-05-25T00:32:49.192Z,101925.69
2023-05-25T00:35:15.721Z,101925.69
2023-05-25T00:37:42.222Z,101920.81
2023-05-25T00:40:14.369Z,101926.19
2023-05-25T00:42:41.028Z,101931.31
2023-05-25T00:45:08.572Z,101931.31
2023-05-25T00:47:35.641Z,101925.13
2023-05-25T00:50:03.346Z,101924.84
2023-05-25T00:52:30.123Z,101926.81
2023-05-25T00:55:00.456Z,101914.19
2023-05-25T00:57:29.856Z,101923.31
2023-05-25T00:59:58.201Z,101922.22
2023-05-25T01:02:29.172Z,101919.31
2023-05-25T01:05:00.511Z,101916.75
2023-05-25T01:07:28.392Z,101918.81
2023-05-25T01:10:02.242Z,101920.31
2023-05-25T01:12:29.964Z,101921.75
2023-05-25T01:14:56.882Z,101921.50
2023-05-25T01:17:26.472Z,101926.97
2023-05-25T01:20:08.895Z,101923.34
2023-05-25T01:22:47.836Z,101924.59
2023-05-25T01:25:21.915Z,101927.28
2023-05-25T01:27:58.800Z,101919.28
2023-05-25T01:30:26.883Z,101924.97
2023-05-25T01:32:54.859Z,101926.41
2023-05-25T01:35:22.908Z,101924.47
2023-05-25T01:37:49.891Z,101929.94
2023-05-25T01:40:16.416Z,101929.56
2023-05-25T01:42:43.028Z,101929.94
2023-05-25T01:45:11.578Z,101931.41
2023-05-25T01:47:48.464Z,101938.19
2023-05-25T01:50:26.772Z,101938.09
2023-05-25T01:53:18.873Z,101938.47
2023-05-25T01:55:57.347Z,101936.63
2023-05-25T01:58:26.588Z,101937.25
2023-05-25T02:00:54.185Z,101929.72
2023-05-25T02:03:21.480Z,101929.34
2023-05-25T02:05:48.954Z,101928.41
2023-05-25T02:08:15.458Z,101922.44
2023-05-25T02:10:41.970Z,101920.88
2023-05-25T02:13:08.506Z,101914.94
2023-05-25T02:15:35.155Z,101919.19
2023-05-25T02:18:02.068Z,101916.28
2023-05-25T02:20:30.746Z,101917.13
2023-05-25T02:22:57.321Z,101926.22
2023-05-25T02:25:23.898Z,101927.69
2023-05-25T02:27:50.703Z,101928.16
2023-05-25T02:30:17.199Z,101923.44
2023-05-25T02:32:43.785Z,101930.13
2023-05-25T02:35:10.295Z,101929.72
2023-05-25T02:37:37.930Z,101933.63
2023-05-25T02:40:06.100Z,101934.94
2023-05-25T02:42:32.578Z,101938.09
2023-05-25T02:44:59.151Z,101933.25
2023-05-25T02:47:26.189Z,101932.38
2023-05-25T02:49:52.732Z,101926.22
2023-05-25T02:52:19.461Z,101925.75
2023-05-25T02:54:45.980Z,101927.19
2023-05-25T02:57:18.612Z,101934.47
2023-05-25T02:59:45.102Z,101928.75
2023-05-25T03:02:12.006Z,101927.44
2023-05-25T03:04:39.548Z,101928.19
2023-05-25T03:07:06.077Z,101930.22
2023-05-25T03:09:32.654Z,101935.66
2023-05-25T03:12:00.718Z,101937.13
2023-05-25T03:14:27.647Z,101938.19
2023-05-25T03:17:01.106Z,101938.91
2023-05-25T03:19:27.668Z,101934.78
2023-05-25T03:21:54.191Z,101929.59
2023-05-25T03:24:20.677Z,101939.69
2023-05-25T03:26:47.727Z,101938.09
2023-05-25T03:29:14.933Z,101945.38
2023-05-25T03:31:41.446Z,101952.25
2023-05-25T03:34:08.143Z,101944.66
2023-05-25T03:36:37.541Z,101941.44
2023-05-25T03:39:04.769Z,101947.16
2023-05-25T03:41:31.390Z,101941.25
2023-05-25T03:43:57.960Z,101952.66
2023-05-25T03:46:24.464Z,101949.47
2023-05-25T03:48:51.022Z,101950.09
2023-05-25T03:51:17.503Z,101945.06
2023-05-25T03:53:45.105Z,101951.84
2023-05-25T03:56:11.583Z,101959.91
2023-05-25T03:58:38.045Z,101963.41
2023-05-25T04:01:05.452Z,101969.25
2023-05-25T04:03:33.162Z,101975.31
2023-05-25T04:06:00.551Z,101972.19
2023-05-25T04:08:28.763Z,101978.00
2023-05-25T04:10:56.083Z,101972.41
2023-05-25T04:13:22.685Z,101975.81
2023-05-25T04:15:50.228Z,101970.25
2023-05-25T04:18:20.546Z,101971.97
2023-05-25T04:20:48.011Z,101981.66
2023-05-25T04:23:15.895Z,101978.59
2023-05-25T04:25:45.400Z,101984.19
2023-05-25T04:28:12.396Z,101975.59
2023-05-25T04:30:59.851Z,101988.06
2023-05-25T04:33:45.414Z,101993.28
2023-05-25T04:36:26.606Z,101983.34
2023-05-25T04:38:55.333Z,101988.44
2023-05-25T04:41:23.337Z,102000.56
2023-05-25T04:44:07.990Z,102002.75
2023-05-25T04:46:39.149Z,101997.97
2023-05-25T04:49:08.443Z,101994.19
2023-05-25T04:51:36.105Z,102000.66
2023-05-25T04:54:03.104Z,101991.06
2023-05-25T04:56:29.600Z,101992.09
2023-05-25T04:58:57.098Z,101987.41
2023-05-25T05:01:24.059Z,101984.81
2023-05-25T05:03:50.924Z,101989.63
2023-05-25T05:06:18.039Z,101998.22
2023-05-25T05:08:44.786Z,101993.25
2023-05-25T05:11:11.885Z,101995.19
2023-05-25T05:13:38.767Z,101987.13
2023-05-25T05:16:05.649Z,101980.94
2023-05-25T05:18:32.968Z,101989.13
2023-05-25T05:20:59.800Z,101984.22
2023-05-25T05:23:26.736Z,101999.09
2023-05-25T05:25:53.861Z,102003.16
2023-05-25T05:28:20.433Z,102002.31
2023-05-25T05:30:47.451Z,102003.22
2023-05-25T05:33:14.643Z,102005.50
2023-05-25T05:35:46.085Z,102009.63
2023-05-25T05:38:17.212Z,102009.16
2023-05-25T05:40:43.758Z,102010.50
2023-05-25T05:43:14.136Z,102011.22
2023-05-25T05:45:41.185Z,102010.16
2023-05-25T05:48:11.067Z,102008.56
2023-05-25T05:50:40.976Z,102017.19
2023-05-25T05:53:09.866Z,102019.78
2023-05-25T05:55:36.729Z,102024.72
2023-05-25T05:58:03.224Z,102020.53
2023-05-25T06:00:29.802Z,102019.94
2023-05-25T06:02:56.532Z,102023.69
2023-05-25T06:05:26.411Z,102024.78
2023-05-25T06:07:54.536Z,102033.53
2023-05-25T06:10:21.875Z,102027.53
2023-05-25T06:12:48.683Z,102028.66
2023-05-25T06:15:15.704Z,102026.25
2023-05-25T06:17:43.237Z,102031.53
2023-05-25T06:20:11.038Z,102037.81
2023-05-25T06:22:37.642Z,102041.88
2023-05-25T06:25:04.607Z,102032.31
2023-05-25T06:27:31.066Z,102031.91
2023-05-25T06:29:57.698Z,102037.28
2023-05-25T06:32:24.230Z,102027.69
2023-05-25T06:34:50.734Z,102030.78
2023-05-25T06:37:18.524Z,102032.19
2023-05-25T06:39:45.052Z,102031.94
2023-05-25T06:42:11.775Z,102037.38
2023-05-25T06:44:49.383Z,102038.53
2023-05-25T06:47:15.850Z,102039.50
2023-05-25T06:49:42.354Z,102045.03
2023-05-25T06:52:08.824Z,102046.69
2023-05-25T06:54:35.441Z,102046.84
2023-05-25T06:57:02.442Z,102035.94
2023-05-25T06:59:28.946Z,102033.34
2023-05-25T07:01:56.224Z,102036.22
2023-05-25T07:04:23.260Z,102039.09
2023-05-25T07:06:49.715Z,102040.63
2023-05-25T07:09:17.298Z,102041.66
2023-05-25T07:11:43.765Z,102046.66
2023-05-25T07:14:10.651Z,102040.81
2023-05-25T07:16:37.197Z,102042.03
2023-05-25T07:19:03.762Z,102039.50
2023-05-25T07:21:36.523Z,102045.19
2023-05-25T07:24:04.149Z,102040.66
2023-05-25T07:26:31.851Z,102038.53
2023-05-25T07:28:58.344Z,102049.53
2023-05-25T07:31:24.880Z,102053.22
2023-05-25T07:33:51.503Z,102055.19
2023-05-25T07:36:19.157Z,102057.63
2023-05-25T07:38:47.572Z,102058.88
2023-05-25T07:41:14.027Z,102062.88
2023-05-25T07:43:40.486Z,102060.63
2023-05-25T07:46:06.970Z,102049.38
2023-05-25T07:48:33.418Z,102058.34
2023-05-25T07:50:59.883Z,102062.38
2023-05-25T07:53:26.511Z,102057.69
2023-05-25T07:55:52.991Z,102057.13
2023-05-25T07:58:19.604Z,102056.41
2023-05-25T08:00:46.102Z,102062.22
2023-05-25T08:03:13.627Z,102064.75
2023-05-25T08:05:40.511Z,102063.41
2023-05-25T08:08:06.957Z,102069.38
2023-05-25T08:10:33.570Z,102064.78
2023-05-25T08:13:00.104Z,102069.19
2023-05-25T08:15:27.137Z,102070.84
2023-05-25T08:17:53.767Z,102070.31
2023-05-25T08:20:20.363Z,102065.66
2023-05-25T08:22:46.972Z,102071.88
2023-05-25T08:25:13.524Z,102065.19
2023-05-25T08:27:40.062Z,102064.38
2023-05-25T08:30:07.094Z,102066.41
2023-05-25T08:32:33.786Z,102068.22
2023-05-25T08:35:01.654Z,102066.97
2023-05-25T08:37:29.304Z,102062.03
2023-05-25T08:39:55.785Z,102061.53
2023-05-25T08:42:23.587Z,102071.63
2023-05-25T08:44:50.245Z,102066.59
2023-05-25T08:47:17.453Z,102066.97
2023-05-25T08:49:45.244Z,102066.53
2023-05-25T08:52:14.958Z,102063.25
2023-05-25T08:54:44.252Z,102069.16
2023-05-25T08:57:14.834Z,102075.81
2023-05-25T08:59:56.989Z,102069.09
2023-05-25T09:02:44.899Z,102080.88
2023-05-25T09:05:13.202Z,102071.47
2023-05-25T09:07:41.852Z,102082.75
2023-05-25T09:10:08.946Z,102078.06
2023-05-25T09:12:36.484Z,102084.63
2023-05-25T09:15:03.264Z,102086.91
2023-05-25T09:17:29.859Z,102083.25
2023-05-25T09:19:56.665Z,102086.41
2023-05-25T09:22:23.200Z,102085.06
2023-05-25T09:24:49.943Z,102085.78
2023-05-25T09:27:18.974Z,102091.00
2023-05-25T09:29:51.948Z,102086.09
2023-05-25T09:32:19.566Z,102085.38
2023-05-25T09:34:47.004Z,102091.78
2023-05-25T09:37:16.266Z,102086.84
2023-05-25T09:39:44.200Z,102096.59
2023-05-25T09:42:11.328Z,102088.63
2023-05-25T09:44:38.788Z,102091.25
2023-05-25T09:47:06.187Z,102101.13
2023-05-25T09:49:32.850Z,102103.34
2023-05-25T09:52:00.748Z,102099.34
2023-05-25T09:54:27.260Z,102100.28
2023-05-25T09:56:54.474Z,102104.88
2023-05-25T09:59:22.761Z,102091.53
2023-05-25T10:01:53.539Z,102094.63
2023-05-25T10:04:20.300Z,102101.59
2023-05-25T10:06:49.796Z,102106.19
2023-05-25T10:09:18.536Z,102103.00
2023-05-25T10:11:45.414Z,102104.38
2023-05-25T10:14:17.432Z,102107.34
2023-05-25T10:16:50.079Z,102099.53
2023-05-25T10:19:22.927Z,102103.22
2023-05-25T10:22:08.115Z,102095.56
2023-05-25T10:24:42.849Z,102106.56
2023-05-25T10:27:25.667Z,102106.16
2023-05-25T10:29:55.947Z,102103.34
2023-05-25T10:32:23.033Z,102101.59
2023-05-25T10:34:52.185Z,102100.66
2023-05-25T10:37:18.700Z,102102.69
2023-05-25T10:39:45.983Z,102100.91
2023-05-25T10:42:13.258Z,102104.03
2023-05-25T10:44:43.370Z,102106.44
2023-05-25T10:47:10.445Z,102112.88
2023-05-25T10:49:55.100Z,102098.06
2023-05-25T10:52:26.411Z,102104.59
2023-05-25T10:54:56.274Z,102100.06
2023-05-25T10:57:24.006Z,102102.41
2023-05-25T10:59:52.153Z,102095.84
2023-05-25T11:02:24.489Z,102103.22
2023-05-25T11:04:51.042Z,102095.13
2023-05-25T11:07:19.459Z,102096.31
2023-05-25T11:09:58.358Z,102088.59
2023-05-25T11:12:24.906Z,102105.09
2023-05-25T11:15:10.591Z,102094.03
2023-05-25T11:17:58.671Z,102093.38
2023-05-25T11:20:28.110Z,102096.75
2023-05-25T11:22:56.923Z,102102.88
2023-05-25T11:28:11.444Z,102100.06
2023-05-25T11:30:41.116Z,102107.75
2023-05-25T11:33:10.366Z,102109.56
2023-05-25T11:35:37.258Z,102110.59
2023-05-25T11:38:07.929Z,102097.28
2023-05-25T11:40:36.382Z,102099.56
2023-05-25T11:43:04.959Z,102090.31
2023-05-25T11:45:34.226Z,102099.72
2023-05-25T11:48:01.022Z,102098.25
2023-05-25T11:50:28.266Z,102095.19
2023-05-25T11:52:54.871Z,102110.13
2023-05-25T11:55:21.384Z,102100.84
2023-05-25T11:57:55.550Z,102105.66
2023-05-25T12:00:27.493Z,102095.84
2023-05-25T12:02:54.434Z,102095.03
2023-05-25T12:05:21.177Z,102100.50
2023-05-25T12:07:47.719Z,102093.81
2023-05-25T12:10:18.552Z,102086.22
2023-05-25T12:12:49.177Z,102084.78
2023-05-25T12:15:20.616Z,102090.03
2023-05-25T12:17:48.150Z,102081.69
2023-05-25T12:20:17.149Z,102087.59
2023-05-25T12:22:44.688Z,102099.84
2023-05-25T12:25:12.997Z,102088.22
2023-05-25T12:27:42.662Z,102091.41
2023-05-25T12:30:10.462Z,102074.44
2023-05-25T12:33:02.346Z,102078.91
2023-05-25T12:35:30.315Z,102086.59
2023-05-25T12:38:13.664Z,102086.75
2023-05-25T12:40:41.198Z,102087.75
2023-05-25T12:43:07.716Z,102079.00
2023-05-25T12:45:34.188Z,102076.41
2023-05-25T12:48:02.188Z,102079.56
2023-05-25T12:50:29.503Z,102078.31
2023-05-25T12:53:01.856Z,102077.22
2023-05-25T12:55:30.245Z,102073.59
2023-05-25T12:57:59.176Z,102070.78
2023-05-25T13:00:37.180Z,102068.00
2023-05-25T13:03:07.191Z,102074.56
2023-05-25T13:05:36.642Z,102068.59
2023-05-25T13:08:05.097Z,102074.06
2023-05-25T13:10:32.874Z,102063.53
2023-05-25T13:13:00.146Z,102060.09
2023-05-25T13:15:27.153Z,102060.41
2023-05-25T13:17:54.843Z,102057.09
2023-05-25T13:20:23.280Z,102058.91
2023-05-25T13:22:51.539Z,102053.88
2023-05-25T13:25:18.408Z,102053.84
2023-05-25T13:27:47.679Z,102050.38
2023-05-25T13:30:15.241Z,102048.34
2023-05-25T13:32:45.167Z,102048.38
2023-05-25T13:35:18.355Z,102058.72
2023-05-25T13:37:45.953Z,102057.63
2023-05-25T13:40:12.606Z,102051.16
2023-05-25T13:42:39.064Z,102056.03
2023-05-25T13:45:06.062Z,102054.25
2023-05-25T13:47:32.724Z,102049.63
2023-05-25T13:49:59.315Z,102054.84
2023-05-25T13:52:26.960Z,102055.84
2023-05-25T13:54:53.429Z,102060.28
2023-05-25T13:57:21.341Z,102056.09
2023-05-25T13:59:47.819Z,102055.06
2023-05-25T14:02:14.514Z,102052.69
2023-05-25T14:04:41.234Z,102052.00
2023-05-25T14:07:07.699Z,102045.88
2023-05-25T14:09:34.169Z,102045.63
2023-05-25T14:12:01.471Z,102041.38
2023-05-25T14:14:31.910Z,102043.38
2023-05-25T14:17:00.389Z,102038.69
2023-05-25T14:19:27.142Z,102040.97
2023-05-25T14:22:11.093Z,102041.13
2023-05-25T14:24:38.040Z,102040.31
2023-05-25T14:27:04.950Z,102050.81
2023-05-25T14:29:31.474Z,102036.78
2023-05-25T14:31:58.071Z,102041.69
2023-05-25T14:34:24.574Z,102040.44
2023-05-25T14:36:51.073Z,102033.94
2023-05-25T14:39:17.615Z,102027.28
2023-05-25T14:41:44.257Z,102035.25
2023-05-25T14:44:11.210Z,102031.00
2023-05-25T14:46:37.859Z,102029.06
2023-05-25T14:49:04.385Z,102024.78
2023-05-25T14:51:30.867Z,102026.81
2023-05-25T14:54:00.177Z,102029.22
2023-05-25T14:56:26.798Z,102029.44
2023-05-25T14:58:53.243Z,102023.72
2023-05-25T15:01:19.809Z,102020.34
2023-05-25T15:03:46.513Z,102018.03
2023-05-25T15:06:13.127Z,102017.53
2023-05-25T15:08:40.351Z,102015.47
2023-05-25T15:11:08.024Z,102011.25
2023-05-25T15:13:34.486Z,102010.44
2023-05-25T15:16:01.007Z,102010.34
2023-05-25T15:18:27.498Z,102009.91
2023-05-25T15:20:54.013Z,102007.38
2023-05-25T15:23:20.525Z,102002.28
2023-05-25T15:25:47.026Z,102010.16
2023-05-25T15:28:13.491Z,101999.97
2023-05-25T15:30:39.982Z,102014.03
2023-05-25T15:33:06.565Z,102006.09
2023-05-25T15:35:33.220Z,102004.44
2023-05-25T15:38:00.966Z,101997.69
2023-05-25T15:40:27.642Z,102001.91
2023-05-25T15:42:54.102Z,102006.69
2023-05-25T15:45:20.618Z,102006.50
2023-05-25T15:47:47.326Z,102002.88
2023-05-25T15:50:13.830Z,102006.06
2023-05-25T15:52:41.502Z,102006.59
2023-05-25T15:55:08.698Z,102011.78
2023-05-25T15:57:35.166Z,102011.63
2023-05-25T16:00:01.624Z,102004.88
2023-05-25T16:02:28.131Z,102007.22
2023-05-25T16:04:54.609Z,102000.72
2023-05-25T16:07:21.073Z,102012.13
2023-05-25T16:09:47.533Z,102009.63
2023-05-25T16:12:14.062Z,102005.94
2023-05-25T16:14:41.015Z,101993.22
2023-05-25T16:17:07.901Z,101994.59
2023-05-25T16:19:34.539Z,101998.72
2023-05-25T16:22:00.999Z,102002.53
2023-05-25T16:24:27.489Z,102000.09
2023-05-25T16:26:54.027Z,101987.91
2023-05-25T16:29:20.597Z,102000.41
2023-05-25T16:31:47.100Z,101998.88
2023-05-25T16:34:13.639Z,101997.28
2023-05-25T16:36:40.114Z,101989.91
2023-05-25T16:39:07.916Z,101994.44
2023-05-25T16:41:34.400Z,101999.41
2023-05-25T16:44:01.453Z,102000.72
2023-05-25T16:46:28.081Z,101990.44
2023-05-25T16:48:54.565Z,101991.47
2023-05-25T16:51:21.019Z,101992.47
2023-05-25T16:53:47.517Z,101983.66
2023-05-25T16:56:14.029Z,101989.28
2023-05-25T16:58:40.518Z,101986.78
2023-05-25T17:01:07.029Z,101991.53
2023-05-25T17:03:34.342Z,101985.72
2023-05-25T17:06:01.033Z,101983.56
2023-05-25T17:08:27.483Z,101987.44
2023-05-25T17:10:54.008Z,101981.75
2023-05-25T17:13:21.056Z,101984.00
2023-05-25T17:15:47.832Z,101990.56
2023-05-25T17:18:15.125Z,101991.59
2023-05-25T17:20:41.768Z,101979.22
2023-05-25T17:23:09.395Z,101982.47
2023-05-25T17:25:35.848Z,101985.84
2023-05-25T17:28:02.309Z,101985.03
2023-05-25T17:30:28.786Z,101985.84
2023-05-25T17:33:01.283Z,101996.91
2023-05-25T17:35:31.190Z,101991.81
2023-05-25T17:37:57.672Z,101993.31
2023-05-25T17:40:24.139Z,101984.47
2023-05-25T17:42:50.654Z,101995.38
2023-05-25T17:45:18.220Z,101989.59
2023-05-25T17:47:44.732Z,101991.44
2023-05-25T17:50:11.272Z,101994.47
2023-05-25T17:52:37.732Z,101992.06
2023-05-25T17:55:05.574Z,101995.66
2023-05-25T17:57:32.053Z,101998.50
2023-05-25T17:59:58.506Z,101997.13
2023-05-25T18:02:25.062Z,101995.66
2023-05-25T18:04:51.586Z,101995.75
2023-05-25T18:07:19.612Z,102002.69
2023-05-25T18:09:46.072Z,102002.06
2023-05-25T18:12:12.569Z,102008.09
2023-05-25T18:14:39.028Z,101999.09
2023-05-25T18:17:05.616Z,102002.44
2023-05-25T18:19:32.133Z,101998.00
2023-05-25T18:21:58.603Z,102003.88
2023-05-25T18:24:25.073Z,102003.16
2023-05-25T18:26:51.658Z,102000.84
2023-05-25T18:29:18.160Z,102002.38
2023-05-25T18:31:47.174Z,102004.72
2023-05-25T18:34:13.899Z,102013.06
2023-05-25T18:36:40.413Z,102009.50
2023-05-25T18:39:06.917Z,102004.78
2023-05-25T18:41:33.443Z,102006.91
2023-05-25T18:43:59.982Z,102009.38
2023-05-25T18:46:27.888Z,102005.94
2023-05-25T18:48:54.383Z,102008.94
2023-05-25T18:51:23.094Z,102016.38
2023-05-25T18:53:49.559Z,102010.06
2023-05-25T18:56:16.083Z,102014.09
2023-05-25T18:58:42.541Z,102014.00
2023-05-25T19:01:08.997Z,102013.78
2023-05-25T19:03:35.555Z,102010.53
2023-05-25T19:06:02.103Z,102014.38
2023-05-25T19:08:28.569Z,102023.31
2023-05-25T19:10:55.039Z,102023.31
2023-05-25T19:13:22.840Z,102021.16
2023-05-25T19:15:50.379Z,102022.06
2023-05-25T19:18:16.921Z,102026.06
2023-05-25T19:20:43.584Z,102033.06
2023-05-25T19:23:10.160Z,102024.66
2023-05-25T19:25:36.872Z,102033.13
2023-05-25T19:28:03.457Z,102028.75
2023-05-25T19:30:29.942Z,102038.50
2023-05-25T19:32:56.440Z,102039.00
2023-05-25T19:35:22.965Z,102034.13
2023-05-25T19:37:49.423Z,102029.59
2023-05-25T19:40:15.898Z,102038.31
2023-05-25T19:42:42.498Z,102043.16
2023-05-25T19:45:09.237Z,102047.13
2023-05-25T19:47:35.889Z,102042.22
2023-05-25T19:50:02.839Z,102045.03
2023-05-25T19:52:29.288Z,102049.38
2023-05-25T19:54:55.836Z,102048.84
2023-05-25T19:57:22.466Z,102055.38
2023-05-25T19:59:50.542Z,102058.47
2023-05-25T20:02:17.135Z,102057.47
2023-05-25T20:04:43.665Z,102052.06
2023-05-25T20:07:10.189Z,102064.28
2023-05-25T20:09:38.468Z,102060.66
2023-05-25T20:12:06.292Z,102065.50
2023-05-25T20:14:33.698Z,102071.19
2023-05-25T20:17:00.203Z,102074.34
2023-05-25T20:19:26.697Z,102068.75
2023-05-25T20:21:53.174Z,102074.66
2023-05-25T20:24:19.626Z,102067.34
2023-05-25T20:26:46.142Z,102073.06
2023-05-25T20:29:12.603Z,102083.22
2023-05-25T20:31:39.124Z,102073.66
2023-05-25T20:34:06.326Z,102083.53
2023-05-25T20:36:33.002Z,102080.16
2023-05-25T20:38:59.648Z,102084.06
2023-05-25T20:41:26.489Z,102079.00
2023-05-25T20:43:52.948Z,102084.97
2023-05-25T20:46:19.489Z,102080.44
2023-05-25T20:48:46.009Z,102082.97
2023-05-25T20:51:12.555Z,102082.69
2023-05-25T20:53:39.053Z,102081.88
2023-05-25T20:56:05.797Z,102075.69
2023-05-25T20:58:32.278Z,102075.69
2023-05-25T21:00:58.779Z,102067.81
2023-05-25T21:03:25.534Z,102077.38
2023-05-25T21:05:52.015Z,102069.78
2023-05-25T21:08:18.486Z,102076.84
2023-05-25T21:10:44.961Z,102070.34
2023-05-25T21:13:11.553Z,102075.16
2023-05-25T21:15:38.032Z,102075.69
2023-05-25T21:18:06.859Z,102079.34
2023-05-25T21:20:33.456Z,102078.81
2023-05-25T21:23:00.666Z,102085.28
2023-05-25T21:25:27.127Z,102080.78
2023-05-25T21:27:55.456Z,102092.31
2023-05-25T21:30:24.300Z,102090.31
2023-05-25T21:32:51.084Z,102083.84
2023-05-25T21:35:18.126Z,102092.03
2023-05-25T21:37:45.305Z,102087.22
2023-05-25T21:40:12.068Z,102083.81
2023-05-25T21:42:38.550Z,102086.84
2023-05-25T21:45:05.416Z,102084.88
2023-05-25T21:47:31.941Z,102091.31
2023-05-25T21:49:58.513Z,102104.53
2023-05-25T21:52:24.968Z,102104.25
2023-05-25T21:54:51.465Z,102108.78
2023-05-25T21:57:17.961Z,102112.16
2023-05-25T21:59:44.446Z,102109.00
2023-05-25T22:02:11.332Z,102105.56
2023-05-25T22:04:37.852Z,102112.59
2023-05-25T22:07:04.578Z,102116.53
2023-05-25T22:09:31.772Z,102123.63
2023-05-25T22:11:58.239Z,102116.78
2023-05-25T22:14:24.723Z,102112.53
2023-05-25T22:16:51.200Z,102109.97
2023-05-25T22:19:17.716Z,102118.72
2023-05-25T22:21:44.185Z,102119.72
2023-05-25T22:24:10.730Z,102119.25
2023-05-25T22:26:37.195Z,102121.47
2023-05-25T22:29:03.673Z,102120.09
2023-05-25T22:31:30.218Z,102116.28
2023-05-25T22:33:56.787Z,102120.53
2023-05-25T22:36:23.336Z,102117.44
2023-05-25T22:38:49.795Z,102124.16
2023-05-25T22:41:16.322Z,102124.72
2023-05-25T22:43:43.547Z,102133.41
2023-05-25T22:46:10.093Z,102132.00
2023-05-25T22:48:36.630Z,102137.28
2023-05-25T22:51:03.289Z,102135.56
2023-05-25T22:53:29.734Z,102147.38
2023-05-25T22:55:56.237Z,102149.31
2023-05-25T22:58:22.722Z,102141.72
2023-05-25T23:00:49.207Z,102139.41
2023-05-25T23:03:15.848Z,102150.25
2023-05-25T23:05:42.424Z,102141.25
2023-05-25T23:08:08.963Z,102138.97
2023-05-25T23:10:35.433Z,102138.63
2023-05-25T23:13:02.273Z,102147.88
2023-05-25T23:15:30.601Z,102149.56
2023-05-25T23:17:57.123Z,102139.94
2023-05-25T23:20:23.738Z,102146.56
2023-05-25T23:22:50.410Z,102141.22
2023-05-25T23:25:16.979Z,102141.56
2023-05-25T23:27:43.440Z,102132.28
2023-05-25T23:30:10.449Z,102129.84
2023-05-25T23:32:36.893Z,102129.72
2023-05-25T23:35:04.090Z,102137.56
2023-05-25T23:37:30.537Z,102143.13
2023-05-25T23:39:56.988Z,102140.28
2023-05-25T23:42:23.460Z,102134.88
2023-05-25T23:44:49.942Z,102134.81
2023-05-25T23:47:16.447Z,102140.34
2023-05-25T23:49:42.913Z,102142.25
2023-05-25T23:52:09.396Z,102145.34
2023-05-25T23:54:35.980Z,102146.44
2023-05-25T23:57:02.439Z,102140.44
2023-05-25T23:59:28.884Z,102137.56
